sensor_id;sensor_type;location;lat;lon;timestamp;P1;durP1;ratioP1;P2;durP2;ratioP2
5026;SDS011;2532;52.480;13.354;2023-04-25T04:01:34;13.97;;;7.53;;
5026;SDS011;2532;52.480;13.354;2023-04-25T04:04:01;10.30;;;6.30;;
5026;SDS011;2532;52.480;13.354;2023-04-25T04:06:28;15.70;;;7.00;;
5026;SDS011;2532;52.480;13.354;2023-04-25T04:08:55;15.67;;;6.53;;
5026;SDS011;2532;52.480;13.354;2023-04-25T04:11:22;10.10;;;6.20;;
5026;SDS011;2532;52.480;13.354;2023-04-25T04:13:52;11.73;;;6.03;;
5026;SDS011;2532;52.480;13.354;2023-04-25T04:16:19;10.80;;;6.07;;
5026;SDS011;2532;52.480;13.354;2023-04-25T04:18:47;9.20;;;5.47;;
5026;SDS011;2532;52.480;13.354;2023-04-25T04:21:14;10.73;;;6.63;;
5026;SDS011;2532;52.480;13.354;2023-04-25T04:23:41;11.23;;;6.00;;
5026;SDS011;2532;52.480;13.354;2023-04-25T04:26:07;12.80;;;6.47;;
5026;SDS011;2532;52.480;13.354;2023-04-25T04:28:36;15.10;;;5.63;;
5026;SDS011;2532;52.480;13.354;2023-04-25T04:31:03;12.20;;;6.30;;
5026;SDS011;2532;52.480;13.354;2023-04-25T04:33:30;8.40;;;5.33;;
5026;SDS011;2532;52.480;13.354;2023-04-25T04:35:58;9.57;;;5.60;;
5026;SDS011;2532;52.480;13.354;2023-04-25T04:38:25;9.93;;;6.30;;
5026;SDS011;2532;52.480;13.354;2023-04-25T04:40:52;8.60;;;5.90;;
5026;SDS011;2532;52.480;13.354;2023-04-25T04:43:19;10.37;;;4.80;;
5026;SDS011;2532;52.480;13.354;2023-04-25T04:45:47;8.27;;;6.07;;
5026;SDS011;2532;52.480;13.354;2023-04-25T04:48:15;9.90;;;5.53;;
5026;SDS011;2532;52.480;13.354;2023-04-25T04:50:42;12.97;;;5.70;;
5026;SDS011;2532;52.480;13.354;2023-04-25T04:53:12;10.83;;;6.67;;
5026;SDS011;2532;52.480;13.354;2023-04-25T04:55:39;11.20;;;6.03;;
5026;SDS011;2532;52.480;13.354;2023-04-25T04:58:06;9.10;;;5.90;;
5026;SDS011;2532;52.480;13.354;2023-04-25T05:00:33;10.10;;;5.87;;
5026;SDS011;2532;52.480;13.354;2023-04-25T05:03:00;14.63;;;5.57;;
5026;SDS011;2532;52.480;13.354;2023-04-25T05:05:27;10.57;;;7.00;;
5026;SDS011;2532;52.480;13.354;2023-04-25T05:07:54;11.70;;;6.63;;
5026;SDS011;2532;52.480;13.354;2023-04-25T05:10:22;12.23;;;5.87;;
5026;SDS011;2532;52.480;13.354;2023-04-25T05:12:50;9.70;;;5.57;;
5026;SDS011;2532;52.480;13.354;2023-04-25T05:15:17;14.30;;;6.83;;
5026;SDS011;2532;52.480;13.354;2023-04-25T05:17:44;10.47;;;6.83;;
5026;SDS011;2532;52.480;13.354;2023-04-25T05:20:11;9.93;;;5.80;;
5026;SDS011;2532;52.480;13.354;2023-04-25T05:22:39;15.00;;;6.13;;
5026;SDS011;2532;52.480;13.354;2023-04-25T05:25:07;13.60;;;6.73;;
5026;SDS011;2532;52.480;13.354;2023-04-25T05:27:35;16.47;;;6.70;;
5026;SDS011;2532;52.480;13.354;2023-04-25T05:30:03;15.63;;;5.97;;
5026;SDS011;2532;52.480;13.354;2023-04-25T05:32:31;12.37;;;5.43;;
5026;SDS011;2532;52.480;13.354;2023-04-25T05:34:57;11.50;;;6.40;;
5026;SDS011;2532;52.480;13.354;2023-04-25T05:37:24;13.40;;;5.93;;
5026;SDS011;2532;52.480;13.354;2023-04-25T05:39:51;12.60;;;9.73;;
5026;SDS011;2532;52.480;13.354;2023-04-25T05:42:18;9.17;;;5.80;;
5026;SDS011;2532;52.480;13.354;2023-04-25T05:44:47;7.70;;;5.60;;
5026;SDS011;2532;52.480;13.354;2023-04-25T05:47:14;10.90;;;6.20;;
5026;SDS011;2532;52.480;13.354;2023-04-25T05:49:41;10.97;;;6.70;;
5026;SDS011;2532;52.480;13.354;2023-04-25T05:52:08;11.30;;;7.67;;
5026;SDS011;2532;52.480;13.354;2023-04-25T05:54:35;18.07;;;7.90;;
5026;SDS011;2532;52.480;13.354;2023-04-25T05:57:02;12.53;;;6.90;;
5026;SDS011;2532;52.480;13.354;2023-04-25T05:59:28;11.07;;;7.33;;
5026;SDS011;2532;52.480;13.354;2023-04-25T06:01:57;12.23;;;7.37;;
5026;SDS011;2532;52.480;13.354;2023-04-25T06:04:24;10.30;;;6.90;;
5026;SDS011;2532;52.480;13.354;2023-04-25T06:06:51;15.27;;;7.73;;
5026;SDS011;2532;52.480;13.354;2023-04-25T06:09:18;12.30;;;7.53;;
5026;SDS011;2532;52.480;13.354;2023-04-25T06:11:46;13.10;;;7.00;;
5026;SDS011;2532;52.480;13.354;2023-04-25T06:14:13;13.23;;;6.73;;
5026;SDS011;2532;52.480;13.354;2023-04-25T06:16:40;13.53;;;7.13;;
5026;SDS011;2532;52.480;13.354;2023-04-25T06:19:08;16.53;;;7.00;;
5026;SDS011;2532;52.480;13.354;2023-04-25T06:21:35;10.30;;;6.73;;
5026;SDS011;2532;52.480;13.354;2023-04-25T06:24:02;12.57;;;8.03;;
5026;SDS011;2532;52.480;13.354;2023-04-25T06:26:29;11.90;;;7.27;;
5026;SDS011;2532;52.480;13.354;2023-04-25T06:28:56;14.67;;;7.67;;
5026;SDS011;2532;52.480;13.354;2023-04-25T06:31:23;16.83;;;6.83;;
5026;SDS011;2532;52.480;13.354;2023-04-25T06:33:50;9.37;;;6.73;;
5026;SDS011;2532;52.480;13.354;2023-04-25T06:36:21;11.77;;;6.80;;
5026;SDS011;2532;52.480;13.354;2023-04-25T06:38:50;14.50;;;6.70;;
5026;SDS011;2532;52.480;13.354;2023-04-25T06:41:16;11.40;;;6.50;;
5026;SDS011;2532;52.480;13.354;2023-04-25T06:43:43;11.73;;;6.77;;
5026;SDS011;2532;52.480;13.354;2023-04-25T06:46:10;13.23;;;6.57;;
5026;SDS011;2532;52.480;13.354;2023-04-25T06:48:37;9.60;;;5.90;;
5026;SDS011;2532;52.480;13.354;2023-04-25T06:51:04;13.27;;;5.93;;
5026;SDS011;2532;52.480;13.354;2023-04-25T06:53:33;19.53;;;6.40;;
5026;SDS011;2532;52.480;13.354;2023-04-25T06:56:00;16.77;;;7.17;;
5026;SDS011;2532;52.480;13.354;2023-04-25T06:58:26;10.17;;;6.67;;
5026;SDS011;2532;52.480;13.354;2023-04-25T07:00:53;13.93;;;8.33;;
5026;SDS011;2532;52.480;13.354;2023-04-25T07:03:20;8.80;;;6.37;;
5026;SDS011;2532;52.480;13.354;2023-04-25T07:05:47;9.37;;;6.10;;
5026;SDS011;2532;52.480;13.354;2023-04-25T07:08:15;8.97;;;5.80;;
5026;SDS011;2532;52.480;13.354;2023-04-25T07:10:43;9.10;;;6.13;;
5026;SDS011;2532;52.480;13.354;2023-04-25T07:13:11;8.93;;;7.00;;
5026;SDS011;2532;52.480;13.354;2023-04-25T07:15:38;10.70;;;6.00;;
5026;SDS011;2532;52.480;13.354;2023-04-25T07:18:05;12.07;;;5.93;;
5026;SDS011;2532;52.480;13.354;2023-04-25T07:20:31;8.17;;;5.53;;
5026;SDS011;2532;52.480;13.354;2023-04-25T07:22:58;10.43;;;6.07;;
5026;SDS011;2532;52.480;13.354;2023-04-25T07:25:25;11.17;;;6.60;;
5026;SDS011;2532;52.480;13.354;2023-04-25T07:27:53;8.10;;;5.50;;
5026;SDS011;2532;52.480;13.354;2023-04-25T07:30:20;10.93;;;6.27;;
5026;SDS011;2532;52.480;13.354;2023-04-25T07:32:47;12.80;;;5.43;;
5026;SDS011;2532;52.480;13.354;2023-04-25T07:35:15;15.37;;;6.23;;
5026;SDS011;2532;52.480;13.354;2023-04-25T07:37:42;12.13;;;6.27;;
5026;SDS011;2532;52.480;13.354;2023-04-25T07:40:10;12.60;;;6.63;;
5026;SDS011;2532;52.480;13.354;2023-04-25T07:42:37;11.47;;;6.03;;
5026;SDS011;2532;52.480;13.354;2023-04-25T07:45:06;12.40;;;5.93;;
5026;SDS011;2532;52.480;13.354;2023-04-25T07:47:34;13.43;;;6.17;;
5026;SDS011;2532;52.480;13.354;2023-04-25T07:50:01;15.20;;;6.30;;
5026;SDS011;2532;52.480;13.354;2023-04-25T07:52:28;16.30;;;6.93;;
5026;SDS011;2532;52.480;13.354;2023-04-25T07:54:56;12.80;;;6.30;;
5026;SDS011;2532;52.480;13.354;2023-04-25T07:57:23;13.40;;;5.97;;
5026;SDS011;2532;52.480;13.354;2023-04-25T07:59:50;13.87;;;6.27;;
5026;SDS011;2532;52.480;13.354;2023-04-25T08:02:18;16.93;;;6.10;;
5026;SDS011;2532;52.480;13.354;2023-04-25T08:04:45;17.63;;;6.60;;
5026;SDS011;2532;52.480;13.354;2023-04-25T08:07:14;14.53;;;6.20;;
5026;SDS011;2532;52.480;13.354;2023-04-25T08:09:41;22.63;;;5.93;;
5026;SDS011;2532;52.480;13.354;2023-04-25T08:12:08;12.77;;;5.40;;
5026;SDS011;2532;52.480;13.354;2023-04-25T08:14:35;17.73;;;5.97;;
5026;SDS011;2532;52.480;13.354;2023-04-25T08:17:02;16.20;;;5.50;;
5026;SDS011;2532;52.480;13.354;2023-04-25T08:19:30;15.90;;;5.40;;
5026;SDS011;2532;52.480;13.354;2023-04-25T08:21:57;16.60;;;5.17;;
5026;SDS011;2532;52.480;13.354;2023-04-25T08:24:24;17.77;;;5.37;;
5026;SDS011;2532;52.480;13.354;2023-04-25T08:26:51;23.17;;;6.53;;
5026;SDS011;2532;52.480;13.354;2023-04-25T08:29:19;14.73;;;6.07;;
5026;SDS011;2532;52.480;13.354;2023-04-25T08:31:45;17.10;;;5.63;;
5026;SDS011;2532;52.480;13.354;2023-04-25T08:34:13;18.43;;;5.87;;
5026;SDS011;2532;52.480;13.354;2023-04-25T08:36:41;17.43;;;5.40;;
5026;SDS011;2532;52.480;13.354;2023-04-25T08:39:08;12.77;;;5.03;;
5026;SDS011;2532;52.480;13.354;2023-04-25T08:41:36;12.40;;;4.80;;
5026;SDS011;2532;52.480;13.354;2023-04-25T08:44:03;20.80;;;5.70;;
5026;SDS011;2532;52.480;13.354;2023-04-25T08:46:31;13.90;;;4.67;;
5026;SDS011;2532;52.480;13.354;2023-04-25T08:49:00;19.93;;;5.50;;
5026;SDS011;2532;52.480;13.354;2023-04-25T08:51:29;23.90;;;6.00;;
5026;SDS011;2532;52.480;13.354;2023-04-25T08:54:01;11.90;;;4.30;;
5026;SDS011;2532;52.480;13.354;2023-04-25T08:56:35;17.47;;;6.50;;
5026;SDS011;2532;52.480;13.354;2023-04-25T08:59:02;15.83;;;5.33;;
5026;SDS011;2532;52.480;13.354;2023-04-25T09:01:29;13.00;;;4.50;;
5026;SDS011;2532;52.480;13.354;2023-04-25T09:03:57;15.40;;;5.70;;
5026;SDS011;2532;52.480;13.354;2023-04-25T09:06:24;15.93;;;4.17;;
5026;SDS011;2532;52.480;13.354;2023-04-25T09:08:51;14.83;;;4.63;;
5026;SDS011;2532;52.480;13.354;2023-04-25T09:11:19;17.30;;;4.17;;
5026;SDS011;2532;52.480;13.354;2023-04-25T09:13:46;15.07;;;4.40;;
5026;SDS011;2532;52.480;13.354;2023-04-25T09:16:13;12.27;;;4.80;;
5026;SDS011;2532;52.480;13.354;2023-04-25T09:18:42;15.73;;;4.33;;
5026;SDS011;2532;52.480;13.354;2023-04-25T09:21:09;11.20;;;4.57;;
5026;SDS011;2532;52.480;13.354;2023-04-25T09:23:41;11.40;;;4.90;;
5026;SDS011;2532;52.480;13.354;2023-04-25T09:26:10;12.37;;;5.60;;
5026;SDS011;2532;52.480;13.354;2023-04-25T09:28:43;14.40;;;4.47;;
5026;SDS011;2532;52.480;13.354;2023-04-25T09:31:10;14.23;;;5.10;;
5026;SDS011;2532;52.480;13.354;2023-04-25T09:33:37;13.70;;;4.77;;
5026;SDS011;2532;52.480;13.354;2023-04-25T09:36:07;17.30;;;5.07;;
5026;SDS011;2532;52.480;13.354;2023-04-25T09:38:40;15.33;;;4.70;;
5026;SDS011;2532;52.480;13.354;2023-04-25T09:41:09;21.47;;;5.90;;
5026;SDS011;2532;52.480;13.354;2023-04-25T09:43:37;15.70;;;4.67;;
5026;SDS011;2532;52.480;13.354;2023-04-25T09:46:09;11.30;;;4.40;;
5026;SDS011;2532;52.480;13.354;2023-04-25T09:48:36;13.20;;;4.60;;
5026;SDS011;2532;52.480;13.354;2023-04-25T09:51:04;12.63;;;4.60;;
5026;SDS011;2532;52.480;13.354;2023-04-25T09:53:32;15.53;;;4.70;;
5026;SDS011;2532;52.480;13.354;2023-04-25T09:56:00;15.57;;;4.13;;
5026;SDS011;2532;52.480;13.354;2023-04-25T09:58:31;18.83;;;5.07;;
5026;SDS011;2532;52.480;13.354;2023-04-25T10:00:59;10.33;;;3.77;;
5026;SDS011;2532;52.480;13.354;2023-04-25T10:03:30;12.23;;;4.47;;
5026;SDS011;2532;52.480;13.354;2023-04-25T10:05:59;14.20;;;4.73;;
5026;SDS011;2532;52.480;13.354;2023-04-25T10:08:29;10.10;;;4.20;;
5026;SDS011;2532;52.480;13.354;2023-04-25T10:10:58;19.00;;;4.37;;
5026;SDS011;2532;52.480;13.354;2023-04-25T10:13:27;13.70;;;5.00;;
5026;SDS011;2532;52.480;13.354;2023-04-25T10:15:56;11.23;;;5.33;;
5026;SDS011;2532;52.480;13.354;2023-04-25T10:18:24;13.10;;;4.60;;
5026;SDS011;2532;52.480;13.354;2023-04-25T10:20:54;10.53;;;4.60;;
5026;SDS011;2532;52.480;13.354;2023-04-25T10:23:22;11.40;;;4.70;;
5026;SDS011;2532;52.480;13.354;2023-04-25T10:25:50;10.10;;;4.00;;
5026;SDS011;2532;52.480;13.354;2023-04-25T10:28:18;13.40;;;3.70;;
5026;SDS011;2532;52.480;13.354;2023-04-25T10:30:58;12.47;;;4.90;;
5026;SDS011;2532;52.480;13.354;2023-04-25T10:33:35;11.20;;;4.10;;
5026;SDS011;2532;52.480;13.354;2023-04-25T10:36:12;13.73;;;3.87;;
5026;SDS011;2532;52.480;13.354;2023-04-25T10:38:43;11.70;;;4.30;;
5026;SDS011;2532;52.480;13.354;2023-04-25T10:41:11;14.00;;;4.70;;
5026;SDS011;2532;52.480;13.354;2023-04-25T10:43:40;9.90;;;4.37;;
5026;SDS011;2532;52.480;13.354;2023-04-25T10:46:18;9.40;;;4.23;;
5026;SDS011;2532;52.480;13.354;2023-04-25T10:48:49;10.93;;;3.70;;
5026;SDS011;2532;52.480;13.354;2023-04-25T10:51:19;11.80;;;4.40;;
5026;SDS011;2532;52.480;13.354;2023-04-25T10:53:57;16.60;;;4.30;;
5026;SDS011;2532;52.480;13.354;2023-04-25T10:56:25;8.33;;;3.80;;
5026;SDS011;2532;52.480;13.354;2023-04-25T10:59:02;11.70;;;4.73;;
5026;SDS011;2532;52.480;13.354;2023-04-25T11:01:35;9.47;;;4.10;;
5026;SDS011;2532;52.480;13.354;2023-04-25T11:04:04;13.17;;;5.07;;
5026;SDS011;2532;52.480;13.354;2023-04-25T11:06:41;13.30;;;4.20;;
5026;SDS011;2532;52.480;13.354;2023-04-25T11:09:18;11.80;;;4.00;;
5026;SDS011;2532;52.480;13.354;2023-04-25T11:11:53;10.57;;;3.70;;
5026;SDS011;2532;52.480;13.354;2023-04-25T11:14:20;17.87;;;5.17;;
5026;SDS011;2532;52.480;13.354;2023-04-25T11:16:47;14.70;;;4.70;;
5026;SDS011;2532;52.480;13.354;2023-04-25T11:19:29;6.67;;;4.23;;
5026;SDS011;2532;52.480;13.354;2023-04-25T11:22:01;7.00;;;3.47;;
5026;SDS011;2532;52.480;13.354;2023-04-25T11:24:30;12.60;;;4.00;;
5026;SDS011;2532;52.480;13.354;2023-04-25T11:27:08;11.80;;;3.73;;
5026;SDS011;2532;52.480;13.354;2023-04-25T11:29:36;5.60;;;3.47;;
5026;SDS011;2532;52.480;13.354;2023-04-25T11:32:03;8.00;;;3.33;;
5026;SDS011;2532;52.480;13.354;2023-04-25T11:34:31;13.27;;;4.00;;
5026;SDS011;2532;52.480;13.354;2023-04-25T11:37:01;17.77;;;3.47;;
5026;SDS011;2532;52.480;13.354;2023-04-25T11:39:31;8.40;;;3.77;;
5026;SDS011;2532;52.480;13.354;2023-04-25T11:42:01;9.63;;;4.23;;
5026;SDS011;2532;52.480;13.354;2023-04-25T11:44:32;9.03;;;4.20;;
5026;SDS011;2532;52.480;13.354;2023-04-25T11:47:00;6.83;;;3.30;;
5026;SDS011;2532;52.480;13.354;2023-04-25T11:49:30;6.63;;;3.40;;
5026;SDS011;2532;52.480;13.354;2023-04-25T11:52:02;10.03;;;3.47;;
5026;SDS011;2532;52.480;13.354;2023-04-25T11:54:34;12.60;;;4.70;;
5026;SDS011;2532;52.480;13.354;2023-04-25T11:57:02;12.67;;;4.90;;
5026;SDS011;2532;52.480;13.354;2023-04-25T11:59:29;13.03;;;4.63;;
5026;SDS011;2532;52.480;13.354;2023-04-25T12:01:57;6.77;;;3.90;;
5026;SDS011;2532;52.480;13.354;2023-04-25T12:04:29;11.13;;;3.70;;
5026;SDS011;2532;52.480;13.354;2023-04-25T12:06:58;6.80;;;4.53;;
5026;SDS011;2532;52.480;13.354;2023-04-25T12:09:31;9.87;;;3.87;;
5026;SDS011;2532;52.480;13.354;2023-04-25T12:11:59;6.30;;;4.23;;
5026;SDS011;2532;52.480;13.354;2023-04-25T12:14:29;7.80;;;4.20;;
5026;SDS011;2532;52.480;13.354;2023-04-25T12:16:58;14.33;;;3.60;;
5026;SDS011;2532;52.480;13.354;2023-04-25T12:19:31;10.63;;;4.40;;
5026;SDS011;2532;52.480;13.354;2023-04-25T12:21:59;12.80;;;4.30;;
5026;SDS011;2532;52.480;13.354;2023-04-25T12:24:33;8.40;;;4.33;;
5026;SDS011;2532;52.480;13.354;2023-04-25T12:27:00;8.33;;;4.30;;
5026;SDS011;2532;52.480;13.354;2023-04-25T12:29:29;6.67;;;3.43;;
5026;SDS011;2532;52.480;13.354;2023-04-25T12:31:58;15.17;;;4.70;;
5026;SDS011;2532;52.480;13.354;2023-04-25T12:34:26;11.83;;;4.50;;
5026;SDS011;2532;52.480;13.354;2023-04-25T12:36:54;11.10;;;4.80;;
5026;SDS011;2532;52.480;13.354;2023-04-25T12:39:22;8.40;;;4.10;;
5026;SDS011;2532;52.480;13.354;2023-04-25T12:41:52;8.20;;;3.10;;
5026;SDS011;2532;52.480;13.354;2023-04-25T12:44:19;8.03;;;3.77;;
5026;SDS011;2532;52.480;13.354;2023-04-25T12:46:47;6.10;;;3.30;;
5026;SDS011;2532;52.480;13.354;2023-04-25T12:49:15;8.87;;;5.20;;
5026;SDS011;2532;52.480;13.354;2023-04-25T12:51:42;9.90;;;4.50;;
5026;SDS011;2532;52.480;13.354;2023-04-25T12:54:09;11.47;;;5.20;;
5026;SDS011;2532;52.480;13.354;2023-04-25T12:56:40;10.67;;;4.53;;
5026;SDS011;2532;52.480;13.354;2023-04-25T12:59:09;12.73;;;4.47;;
5026;SDS011;2532;52.480;13.354;2023-04-25T13:01:36;9.80;;;4.70;;
5026;SDS011;2532;52.480;13.354;2023-04-25T13:04:03;8.53;;;4.20;;
5026;SDS011;2532;52.480;13.354;2023-04-25T13:06:31;9.97;;;4.30;;
5026;SDS011;2532;52.480;13.354;2023-04-25T13:08:58;9.17;;;4.27;;
5026;SDS011;2532;52.480;13.354;2023-04-25T13:11:25;10.10;;;4.10;;
5026;SDS011;2532;52.480;13.354;2023-04-25T13:13:52;7.13;;;3.83;;
5026;SDS011;2532;52.480;13.354;2023-04-25T13:16:21;7.57;;;3.80;;
5026;SDS011;2532;52.480;13.354;2023-04-25T13:18:48;10.73;;;4.33;;
5026;SDS011;2532;52.480;13.354;2023-04-25T13:21:15;7.77;;;3.43;;
5026;SDS011;2532;52.480;13.354;2023-04-25T13:23:42;5.90;;;3.40;;
5026;SDS011;2532;52.480;13.354;2023-04-25T13:26:11;10.97;;;4.13;;
5026;SDS011;2532;52.480;13.354;2023-04-25T13:28:38;7.63;;;4.10;;
5026;SDS011;2532;52.480;13.354;2023-04-25T13:31:06;8.90;;;4.70;;
5026;SDS011;2532;52.480;13.354;2023-04-25T13:33:34;7.60;;;4.00;;
5026;SDS011;2532;52.480;13.354;2023-04-25T13:36:01;6.57;;;4.47;;
5026;SDS011;2532;52.480;13.354;2023-04-25T13:38:28;9.63;;;4.67;;
5026;SDS011;2532;52.480;13.354;2023-04-25T13:40:55;10.07;;;4.77;;
5026;SDS011;2532;52.480;13.354;2023-04-25T13:43:22;8.43;;;4.50;;
5026;SDS011;2532;52.480;13.354;2023-04-25T13:45:50;5.03;;;4.00;;
5026;SDS011;2532;52.480;13.354;2023-04-25T13:48:17;7.67;;;4.67;;
5026;SDS011;2532;52.480;13.354;2023-04-25T13:50:47;9.53;;;4.27;;
5026;SDS011;2532;52.480;13.354;2023-04-25T13:53:14;8.00;;;4.17;;
5026;SDS011;2532;52.480;13.354;2023-04-25T13:55:41;10.23;;;4.20;;
5026;SDS011;2532;52.480;13.354;2023-04-25T13:58:08;8.00;;;4.17;;
5026;SDS011;2532;52.480;13.354;2023-04-25T14:00:35;9.03;;;4.70;;
5026;SDS011;2532;52.480;13.354;2023-04-25T14:03:05;11.67;;;5.60;;
5026;SDS011;2532;52.480;13.354;2023-04-25T14:05:32;8.47;;;4.40;;
5026;SDS011;2532;52.480;13.354;2023-04-25T14:08:05;7.87;;;4.30;;
5026;SDS011;2532;52.480;13.354;2023-04-25T14:10:32;8.20;;;4.47;;
5026;SDS011;2532;52.480;13.354;2023-04-25T14:12:59;10.40;;;5.13;;
5026;SDS011;2532;52.480;13.354;2023-04-25T14:15:28;10.67;;;5.27;;
5026;SDS011;2532;52.480;13.354;2023-04-25T14:17:55;12.47;;;4.50;;
5026;SDS011;2532;52.480;13.354;2023-04-25T14:20:22;7.97;;;3.83;;
5026;SDS011;2532;52.480;13.354;2023-04-25T14:22:49;5.50;;;4.10;;
5026;SDS011;2532;52.480;13.354;2023-04-25T14:25:18;8.13;;;4.93;;
5026;SDS011;2532;52.480;13.354;2023-04-25T14:27:45;9.73;;;3.93;;
5026;SDS011;2532;52.480;13.354;2023-04-25T14:30:17;11.60;;;4.10;;
5026;SDS011;2532;52.480;13.354;2023-04-25T14:32:44;7.57;;;4.30;;
5026;SDS011;2532;52.480;13.354;2023-04-25T14:35:12;7.50;;;4.83;;
5026;SDS011;2532;52.480;13.354;2023-04-25T14:37:39;11.97;;;3.53;;
5026;SDS011;2532;52.480;13.354;2023-04-25T14:40:06;5.90;;;3.90;;
5026;SDS011;2532;52.480;13.354;2023-04-25T14:42:37;6.03;;;4.10;;
5026;SDS011;2532;52.480;13.354;2023-04-25T14:45:04;6.23;;;3.70;;
5026;SDS011;2532;52.480;13.354;2023-04-25T14:47:33;6.13;;;4.23;;
5026;SDS011;2532;52.480;13.354;2023-04-25T14:50:01;5.80;;;3.40;;
5026;SDS011;2532;52.480;13.354;2023-04-25T14:52:29;9.20;;;3.70;;
5026;SDS011;2532;52.480;13.354;2023-04-25T14:54:56;7.93;;;3.83;;
5026;SDS011;2532;52.480;13.354;2023-04-25T14:57:25;9.20;;;3.53;;
5026;SDS011;2532;52.480;13.354;2023-04-25T14:59:53;14.13;;;3.80;;
5026;SDS011;2532;52.480;13.354;2023-04-25T15:02:20;8.93;;;3.57;;
5026;SDS011;2532;52.480;13.354;2023-04-25T15:04:47;9.57;;;4.13;;
5026;SDS011;2532;52.480;13.354;2023-04-25T15:07:14;6.57;;;3.63;;
5026;SDS011;2532;52.480;13.354;2023-04-25T15:09:42;10.27;;;4.50;;
5026;SDS011;2532;52.480;13.354;2023-04-25T15:12:09;9.27;;;4.77;;
5026;SDS011;2532;52.480;13.354;2023-04-25T15:14:36;6.40;;;3.90;;
5026;SDS011;2532;52.480;13.354;2023-04-25T15:17:05;8.07;;;4.07;;
5026;SDS011;2532;52.480;13.354;2023-04-25T15:19:32;7.60;;;3.87;;
5026;SDS011;2532;52.480;13.354;2023-04-25T15:21:59;10.77;;;4.30;;
5026;SDS011;2532;52.480;13.354;2023-04-25T15:24:29;7.50;;;4.33;;
5026;SDS011;2532;52.480;13.354;2023-04-25T15:26:56;10.50;;;4.27;;
5026;SDS011;2532;52.480;13.354;2023-04-25T15:29:24;7.60;;;3.87;;
5026;SDS011;2532;52.480;13.354;2023-04-25T15:31:52;9.10;;;3.80;;
5026;SDS011;2532;52.480;13.354;2023-04-25T15:34:21;9.93;;;5.53;;
5026;SDS011;2532;52.480;13.354;2023-04-25T15:36:48;5.83;;;3.07;;
5026;SDS011;2532;52.480;13.354;2023-04-25T15:39:15;4.10;;;2.97;;
5026;SDS011;2532;52.480;13.354;2023-04-25T15:41:43;6.43;;;4.10;;
5026;SDS011;2532;52.480;13.354;2023-04-25T15:44:10;6.33;;;4.20;;
5026;SDS011;2532;52.480;13.354;2023-04-25T15:47:00;6.97;;;5.30;;
5026;SDS011;2532;52.480;13.354;2023-04-25T15:49:29;8.07;;;3.97;;
5026;SDS011;2532;52.480;13.354;2023-04-25T15:51:56;8.30;;;3.83;;
5026;SDS011;2532;52.480;13.354;2023-04-25T15:54:23;6.57;;;4.10;;
5026;SDS011;2532;52.480;13.354;2023-04-25T15:56:50;8.83;;;4.27;;
5026;SDS011;2532;52.480;13.354;2023-04-25T15:59:17;5.63;;;3.23;;
5026;SDS011;2532;52.480;13.354;2023-04-25T16:01:44;5.23;;;3.00;;
5026;SDS011;2532;52.480;13.354;2023-04-25T16:04:11;8.03;;;4.53;;
5026;SDS011;2532;52.480;13.354;2023-04-25T16:06:41;13.87;;;6.73;;
5026;SDS011;2532;52.480;13.354;2023-04-25T16:09:08;9.90;;;5.93;;
5026;SDS011;2532;52.480;13.354;2023-04-25T16:11:36;6.67;;;3.97;;
5026;SDS011;2532;52.480;13.354;2023-04-25T16:14:03;6.20;;;3.13;;
5026;SDS011;2532;52.480;13.354;2023-04-25T16:16:30;6.97;;;3.97;;
5026;SDS011;2532;52.480;13.354;2023-04-25T16:18:57;3.73;;;3.30;;
5026;SDS011;2532;52.480;13.354;2023-04-25T16:21:24;7.43;;;3.50;;
5026;SDS011;2532;52.480;13.354;2023-04-25T16:23:55;11.77;;;5.83;;
5026;SDS011;2532;52.480;13.354;2023-04-25T16:26:22;6.40;;;3.40;;
5026;SDS011;2532;52.480;13.354;2023-04-25T16:28:49;5.30;;;3.70;;
5026;SDS011;2532;52.480;13.354;2023-04-25T16:31:16;7.23;;;3.57;;
5026;SDS011;2532;52.480;13.354;2023-04-25T16:33:43;5.50;;;3.00;;
5026;SDS011;2532;52.480;13.354;2023-04-25T16:36:10;7.07;;;3.80;;
5026;SDS011;2532;52.480;13.354;2023-04-25T16:38:37;8.27;;;4.27;;
5026;SDS011;2532;52.480;13.354;2023-04-25T16:41:06;6.43;;;3.87;;
5026;SDS011;2532;52.480;13.354;2023-04-25T16:43:33;9.37;;;3.67;;
5026;SDS011;2532;52.480;13.354;2023-04-25T16:46:00;5.47;;;3.10;;
5026;SDS011;2532;52.480;13.354;2023-04-25T16:48:27;10.17;;;4.13;;
5026;SDS011;2532;52.480;13.354;2023-04-25T16:50:54;10.87;;;3.57;;
5026;SDS011;2532;52.480;13.354;2023-04-25T16:53:21;9.47;;;3.47;;
5026;SDS011;2532;52.480;13.354;2023-04-25T16:55:50;8.30;;;4.00;;
5026;SDS011;2532;52.480;13.354;2023-04-25T16:58:19;4.83;;;2.90;;
5026;SDS011;2532;52.480;13.354;2023-04-25T17:00:47;4.67;;;3.20;;
5026;SDS011;2532;52.480;13.354;2023-04-25T17:03:14;7.70;;;4.37;;
5026;SDS011;2532;52.480;13.354;2023-04-25T17:05:41;5.17;;;3.30;;
5026;SDS011;2532;52.480;13.354;2023-04-25T17:08:08;8.43;;;4.47;;
5026;SDS011;2532;52.480;13.354;2023-04-25T17:10:35;5.70;;;2.70;;
5026;SDS011;2532;52.480;13.354;2023-04-25T17:13:01;8.17;;;3.77;;
5026;SDS011;2532;52.480;13.354;2023-04-25T17:15:30;5.03;;;3.37;;
5026;SDS011;2532;52.480;13.354;2023-04-25T17:17:57;4.40;;;3.10;;
5026;SDS011;2532;52.480;13.354;2023-04-25T17:20:24;6.70;;;2.97;;
5026;SDS011;2532;52.480;13.354;2023-04-25T17:22:52;9.03;;;4.13;;
5026;SDS011;2532;52.480;13.354;2023-04-25T17:25:19;5.60;;;3.63;;
5026;SDS011;2532;52.480;13.354;2023-04-25T17:27:46;4.63;;;3.07;;
5026;SDS011;2532;52.480;13.354;2023-04-25T17:30:13;6.90;;;3.27;;
5026;SDS011;2532;52.480;13.354;2023-04-25T17:32:42;7.30;;;3.00;;
5026;SDS011;2532;52.480;13.354;2023-04-25T17:35:09;9.50;;;3.37;;
5026;SDS011;2532;52.480;13.354;2023-04-25T17:37:37;6.90;;;4.33;;
5026;SDS011;2532;52.480;13.354;2023-04-25T17:40:05;5.70;;;3.70;;
5026;SDS011;2532;52.480;13.354;2023-04-25T17:42:36;7.53;;;4.37;;
5026;SDS011;2532;52.480;13.354;2023-04-25T17:45:03;7.50;;;3.53;;
5026;SDS011;2532;52.480;13.354;2023-04-25T17:47:31;7.50;;;4.60;;
5026;SDS011;2532;52.480;13.354;2023-04-25T17:50:00;5.57;;;2.83;;
5026;SDS011;2532;52.480;13.354;2023-04-25T17:52:29;11.30;;;5.10;;
5026;SDS011;2532;52.480;13.354;2023-04-25T17:54:56;7.93;;;3.27;;
5026;SDS011;2532;52.480;13.354;2023-04-25T17:57:23;5.87;;;3.47;;
5026;SDS011;2532;52.480;13.354;2023-04-25T17:59:50;6.63;;;3.07;;
5026;SDS011;2532;52.480;13.354;2023-04-25T18:02:17;6.93;;;4.20;;
5026;SDS011;2532;52.480;13.354;2023-04-25T18:04:45;7.77;;;3.40;;
5026;SDS011;2532;52.480;13.354;2023-04-25T18:07:14;7.70;;;3.70;;
5026;SDS011;2532;52.480;13.354;2023-04-25T18:09:41;5.47;;;3.33;;
5026;SDS011;2532;52.480;13.354;2023-04-25T18:12:08;8.43;;;3.60;;
5026;SDS011;2532;52.480;13.354;2023-04-25T18:14:35;5.53;;;3.53;;
5026;SDS011;2532;52.480;13.354;2023-04-25T18:17:03;5.83;;;3.20;;
5026;SDS011;2532;52.480;13.354;2023-04-25T18:19:31;4.50;;;2.70;;
5026;SDS011;2532;52.480;13.354;2023-04-25T18:21:59;5.17;;;2.93;;
5026;SDS011;2532;52.480;13.354;2023-04-25T18:24:27;7.97;;;5.00;;
5026;SDS011;2532;52.480;13.354;2023-04-25T18:26:54;7.10;;;4.20;;
5026;SDS011;2532;52.480;13.354;2023-04-25T18:29:24;5.17;;;3.30;;
5026;SDS011;2532;52.480;13.354;2023-04-25T18:31:52;8.37;;;3.10;;
5026;SDS011;2532;52.480;13.354;2023-04-25T18:34:19;9.27;;;3.83;;
5026;SDS011;2532;52.480;13.354;2023-04-25T18:36:48;8.43;;;3.73;;
5026;SDS011;2532;52.480;13.354;2023-04-25T18:39:16;8.93;;;4.13;;
5026;SDS011;2532;52.480;13.354;2023-04-25T18:41:45;8.67;;;3.87;;
5026;SDS011;2532;52.480;13.354;2023-04-25T18:44:11;11.07;;;4.87;;
5026;SDS011;2532;52.480;13.354;2023-04-25T18:46:38;6.93;;;4.53;;
5026;SDS011;2532;52.480;13.354;2023-04-25T18:49:07;4.77;;;3.53;;
5026;SDS011;2532;52.480;13.354;2023-04-25T18:51:34;8.87;;;6.50;;
5026;SDS011;2532;52.480;13.354;2023-04-25T18:54:01;6.73;;;4.30;;
5026;SDS011;2532;52.480;13.354;2023-04-25T18:56:29;9.57;;;4.27;;
5026;SDS011;2532;52.480;13.354;2023-04-25T18:58:58;9.70;;;4.20;;
5026;SDS011;2532;52.480;13.354;2023-04-25T19:01:25;8.33;;;5.83;;